METAR Data

Data at: 1906 UTC 21 Nov 2018

METAR for:KHYA (Hyannis/Barnstable M, MA, US)
Text:KHYA 211856Z 23019G25KT 10SM FEW031 BKN110 07/M01 A2987 RMK AO2 SLP114 T00671006
Temperature: 6.7°C ( 44°F)
Dewpoint: -0.6°C ( 31°F) [RH = 60%]
Pressure (altimeter):29.87 inches Hg (1011.6 mb) [Sea level pressure: 1011.4 mb]
Winds:from the SW (230 degrees) at 22 MPH (19 knots; 9.8 m/s) gusting to 29 MPH (25 knots; 12.9 m/s)
Visibility:10 or more sm (16+ km)
Ceiling:11000 feet AGL
Clouds: few clouds at 3100 feet AGL, broken clouds at 11000 feet AGL